Village Creek, Iowa
Current Conditions -  °F | °C
As of 6:35 AM on Sunday 21 Dec 2014 (Local Time) from KDEH Reporting Station
Moderate Fog Moderate Fog  
Wind Chill: 24°   Ceiling: 200
Heat Index: 32°   Visibility: 0.25mi
Dew Point: 32°   Wind: 10mph
Humidity: 100%   Direction: 160°SSE
Pressure: 30"   Gusts: 16mph
Location:  43.3826°N, 91.3585°W
Report Text: KDEH 211235Z AUTO 16009G14KT 1/4SM FG OVC002 00/00 A3000 RMK AO2
Loading
Personal Weather Stations






























Interactive Weather Map New forecast layout! Learn more

10-Day Weather Forecast

Advertisements
Track Severe Weather on mobile